Time;durP1;ratioP1;P1;durP2;ratioP2;P2;SDS_P1;SDS_P2;PMS_P1;PMS_P2;Temp;Humidity;BMP_temperature;BMP_pressure;BME280_temperature;BME280_humidity;BME280_pressure;Samples;Min_cycle;Max_cycle;Signal;HPM_P1;HPM_P2
2024/01/24 00:00:39;;;;;;;7.03;1.08;;;13.00;99.90;;;;;;6293761;28;20056;-91
2024/01/24 00:03:41;;;;;;;8.27;1.40;;;12.90;99.90;;;;;;6287652;28;20088;-86
2024/01/24 00:06:43;;;;;;;5.90;0.90;;;13.00;99.90;;;;;;6318987;28;20728;-86
2024/01/24 00:09:45;;;;;;;4.85;1.10;;;;;;;;;;6293247;28;20056;-84
2024/01/24 00:12:47;;;;;;;7.03;1.65;;;13.00;99.90;;;;;;6313542;28;20556;-85
2024/01/24 00:15:49;;;;;;;9.23;1.50;;;12.90;99.90;;;;;;6291175;28;20055;-87
2024/01/24 00:18:51;;;;;;;8.50;1.52;;;12.90;99.90;;;;;;6286373;28;20576;-87
2024/01/24 00:21:53;;;;;;;6.22;1.33;;;12.90;99.90;;;;;;6295467;28;20064;-88
2024/01/24 00:24:54;;;;;;;10.32;1.50;;;13.00;99.90;;;;;;6318963;28;20098;-90
2024/01/24 00:27:56;;;;;;;18.42;2.47;;;13.00;99.90;;;;;;6296064;28;20052;-87
2024/01/24 00:30:58;;;;;;;11.65;2.08;;;12.90;99.90;;;;;;6298261;28;20045;-90
2024/01/24 00:34:00;;;;;;;13.95;2.20;;;12.40;99.90;;;;;;6289850;28;20053;-91
2024/01/24 00:37:02;;;;;;;15.90;2.53;;;12.90;99.90;;;;;;6319897;28;20048;-88
2024/01/24 00:40:04;;;;;;;13.35;2.42;;;12.80;99.90;;;;;;6296761;28;20063;-88
2024/01/24 00:43:08;;;;;;;18.88;2.80;;;12.80;99.90;;;;;;6316847;28;20074;-91
2024/01/24 00:46:10;;;;;;;19.27;3.03;;;12.80;99.90;;;;;;6300170;28;20131;-91
2024/01/24 00:49:12;;;;;;;23.45;4.20;;;12.80;99.20;;;;;;6322323;28;20044;-91
2024/01/24 00:52:13;;;;;;;17.38;2.90;;;12.80;97.90;;;;;;6322068;28;20052;-89
2024/01/24 00:55:15;;;;;;;20.50;3.33;;;12.90;97.00;;;;;;6302791;28;20052;-87
2024/01/24 00:58:17;;;;;;;22.63;3.95;;;12.70;94.00;;;;;;6316232;28;20045;-87
2024/01/24 01:01:18;;;;;;;17.13;3.30;;;12.80;92.60;;;;;;6301859;28;20141;-87
2024/01/24 01:04:21;;;;;;;18.48;3.78;;;12.90;95.10;;;;;;6325357;28;20048;-89
2024/01/24 01:07:23;;;;;;;19.63;3.35;;;12.90;94.80;;;;;;6302004;28;20049;-87
2024/01/24 01:10:24;;;;;;;16.02;3.13;;;12.00;94.00;;;;;;6313824;28;20057;-90
2024/01/24 01:13:26;;;;;;;24.55;3.47;;;12.90;94.50;;;;;;6313176;28;20415;-88
2024/01/24 01:16:28;;;;;;;22.50;3.92;;;12.90;88.00;;;;;;6323488;28;20078;-91
2024/01/24 01:19:29;;;;;;;17.83;3.33;;;12.90;86.20;;;;;;6301341;28;20052;-89
2024/01/24 01:22:31;;;;;;;22.50;4.15;;;12.90;90.10;;;;;;6297386;28;20405;-91
2024/01/24 01:25:33;;;;;;;25.15;4.00;;;12.90;82.80;;;;;;6324050;28;20086;-92
2024/01/24 01:28:35;;;;;;;19.33;3.67;;;12.80;80.50;;;;;;6314716;28;20541;-93
2024/01/24 01:31:41;;;;;;;23.17;4.60;;;12.80;83.00;;;;;;6301436;28;20162;-91
2024/01/24 01:34:43;;;;;;;27.40;4.70;;;12.80;79.90;;;;;;6327926;28;20051;-89
2024/01/24 01:37:44;;;;;;;24.40;4.18;;;12.70;83.00;;;;;;6304881;28;20048;-92
2024/01/24 01:40:46;;;;;;;24.92;4.53;;;12.70;84.30;;;;;;6301822;28;20064;-91
2024/01/24 01:43:48;;;;;;;27.75;4.75;;;12.70;88.60;;;;;;6313454;28;20052;-88
2024/01/24 01:46:53;;;;;;;30.35;5.75;;;12.70;67.50;;;;;;6326908;28;20059;-86
2024/01/24 01:49:54;;;;;;;28.17;4.70;;;12.70;65.60;;;;;;6302010;28;20431;-90
2024/01/24 01:52:56;;;;;;;29.33;5.05;;;12.60;52.90;;;;;;6325021;28;20052;-85
2024/01/24 01:55:58;;;;;;;31.70;6.05;;;12.70;43.10;;;;;;6299662;28;20482;-87
2024/01/24 01:59:00;;;;;;;28.13;4.82;;;12.70;38.40;;;;;;6308282;28;20052;-87
2024/01/24 02:02:01;;;;;;;26.58;4.82;;;12.70;54.50;;;;;;6300478;28;20487;-86
2024/01/24 02:05:03;;;;;;;36.15;5.57;;;12.60;62.00;;;;;;6326262;28;20049;-89
2024/01/24 02:08:05;;;;;;;36.55;5.97;;;12.60;67.30;;;;;;6301523;28;20052;-88
2024/01/24 02:11:07;;;;;;;27.38;5.25;;;12.50;62.70;;;;;;6307539;28;20054;-89
2024/01/24 02:14:09;;;;;;;29.70;5.60;;;12.60;60.70;;;;;;6308686;28;20053;-91
2024/01/24 02:17:10;;;;;;;31.08;5.13;;;12.60;68.50;;;;;;6325106;28;20438;-91
2024/01/24 02:20:12;;;;;;;30.83;5.78;;;12.60;56.80;;;;;;6300636;28;20423;-90
2024/01/24 02:23:14;;;;;;;38.35;6.68;;;12.60;72.50;;;;;;6326440;28;20513;-92
2024/01/24 02:26:16;;;;;;;28.55;4.55;;;12.50;69.80;;;;;;6304310;28;20052;-90
2024/01/24 02:29:17;;;;;;;31.33;5.85;;;12.80;68.80;;;;;;6309322;28;20704;-91
2024/01/24 02:32:19;;;;;;;32.50;5.40;;;12.50;66.10;;;;;;6305622;28;20046;-92
2024/01/24 02:35:24;;;;;;;37.78;5.75;;;12.50;68.80;;;;;;6311056;28;20058;-91
2024/01/24 02:38:26;;;;;;;36.35;5.57;;;12.40;57.60;;;;;;6316986;28;20051;-92
2024/01/24 02:41:27;;;;;;;38.17;6.38;;;11.70;50.80;;;;;;6308396;28;20068;-90
2024/01/24 02:44:29;;;;;;;32.83;5.53;;;12.70;39.80;;;;;;6326402;28;20051;-90
2024/01/24 02:47:31;;;;;;;36.00;6.00;;;;;;;;;;6299787;28;20048;-88
2024/01/24 02:50:33;;;;;;;32.60;5.45;;;12.30;34.20;;;;;;6299756;28;20048;-90
2024/01/24 02:53:35;;;;;;;33.58;5.68;;;12.30;26.90;;;;;;6326868;28;20051;-92
2024/01/24 02:56:37;;;;;;;28.13;5.45;;;12.30;38.00;;;;;;6303003;28;20060;-88
2024/01/24 02:59:39;;;;;;;42.10;5.90;;;12.20;27.80;;;;;;6314819;28;20095;-88
2024/01/24 03:02:41;;;;;;;31.60;5.32;;;12.20;27.80;;;;;;6321963;28;20048;-86
2024/01/24 03:05:43;;;;;;;42.60;6.25;;;12.00;24.40;;;;;;6301541;28;20060;-90
2024/01/24 03:08:44;;;;;;;34.40;6.07;;;11.90;27.10;;;;;;6324387;28;20044;-89
2024/01/24 03:11:46;;;;;;;30.75;5.38;;;11.80;31.40;;;;;;6299929;28;20048;-90
2024/01/24 03:14:48;;;;;;;38.05;6.15;;;11.70;7.80;;;;;;6323149;28;20052;-91
2024/01/24 03:17:49;;;;;;;36.55;5.93;;;11.70;1.00;;;;;;6298741;28;20044;-93
2024/01/24 03:20:51;;;;;;;37.53;6.28;;;11.70;1.00;;;;;;6324191;28;20066;-91
2024/01/24 03:23:53;;;;;;;40.70;6.60;;;11.70;3.70;;;;;;6301900;28;20412;-89
2024/01/24 03:26:58;;;;;;;37.30;5.68;;;11.70;8.00;;;;;;6315922;28;20052;-92
2024/01/24 03:30:03;;;;;;;36.75;5.88;;;11.70;15.00;;;;;;6281327;28;20055;-94
2024/01/24 03:33:05;;;;;;;36.00;5.93;;;11.60;7.60;;;;;;6326197;28;20051;-91
2024/01/24 03:36:07;;;;;;;46.03;6.70;;;12.40;15.00;;;;;;6301904;28;20052;-90
2024/01/24 03:39:12;;;;;;;44.60;7.00;;;12.70;15.60;;;;;;6324351;28;20058;-88
2024/01/24 03:42:13;;;;;;;42.75;6.60;;;11.60;7.60;;;;;;6301662;28;20044;-92
2024/01/24 03:45:15;;;;;;;37.45;5.95;;;11.60;9.20;;;;;;6310255;28;20514;-86
2024/01/24 03:48:17;;;;;;;38.65;6.45;;;11.60;6.50;;;;;;6327601;28;20079;-90
2024/01/24 03:51:18;;;;;;;36.65;6.20;;;11.60;8.20;;;;;;6301993;28;20057;-87
2024/01/24 03:54:22;;;;;;;39.78;6.80;;;11.20;23.20;;;;;;6329801;28;20048;-89
2024/01/24 03:57:28;;;;;;;33.90;6.30;;;11.50;13.50;;;;;;6302452;28;20059;-92
2024/01/24 04:00:29;;;;;;;41.67;6.88;;;11.40;21.50;;;;;;6309847;28;20053;-88
2024/01/24 04:03:31;;;;;;;42.50;7.13;;;11.50;15.70;;;;;;6321731;28;20045;-87
2024/01/24 04:06:33;;;;;;;45.72;7.68;;;11.50;14.10;;;;;;6329821;28;20055;-92
2024/01/24 04:09:35;;;;;;;49.97;6.60;;;11.50;12.00;;;;;;6304852;28;20407;-94
2024/01/24 04:12:38;;;;;;;39.72;6.32;;;11.40;19.20;;;;;;6307512;28;20562;-94
2024/01/24 04:15:41;;;;;;;44.33;7.40;;;11.30;22.20;;;;;;6324179;28;20117;-88
2024/01/24 04:18:46;;;;;;;36.80;6.82;;;11.30;27.30;;;;;;6300823;28;20082;-86
2024/01/24 04:21:48;;;;;;;38.00;6.57;;;11.20;21.20;;;;;;6292684;28;20052;-86
2024/01/24 04:24:50;;;;;;;43.28;7.38;;;11.30;23.60;;;;;;6319439;28;20462;-85
2024/01/24 04:27:51;;;;;;;33.38;6.63;;;11.20;28.20;;;;;;6321551;28;20215;-87
2024/01/24 04:30:53;;;;;;;40.10;6.70;;;11.20;17.70;;;;;;6308248;28;20059;-86
2024/01/24 04:33:55;;;;;;;39.88;6.90;;;11.20;25.40;;;;;;6303555;28;20055;-85
2024/01/24 04:36:57;;;;;;;39.35;7.10;;;11.10;28.90;;;;;;6338436;28;20063;-87
2024/01/24 04:39:59;;;;;;;44.80;6.85;;;11.20;27.30;;;;;;6310868;28;20063;-93
2024/01/24 04:43:01;;;;;;;31.70;6.18;;;;;;;;;;6330014;28;20071;-89
2024/01/24 04:46:11;;;;;;;45.72;7.15;;;11.20;28.90;;;;;;6315542;28;20117;-90
2024/01/24 04:49:12;;;;;;;35.88;6.35;;;11.20;27.30;;;;;;6327082;28;20427;-88
2024/01/24 04:52:34;;;;;;;40.63;6.15;;;11.10;45.30;;;;;;6303295;28;20060;-90
2024/01/24 04:55:36;;;;;;;44.05;6.75;;;11.10;31.30;;;;;;6342958;28;20056;-94
2024/01/24 04:58:41;;;;;;;42.88;7.22;;;11.10;32.40;;;;;;6327991;28;20048;-88
2024/01/24 05:01:43;;;;;;;44.13;8.13;;;11.00;35.40;;;;;;6321081;28;20055;-90
2024/01/24 05:04:58;;;;;;;42.25;7.47;;;11.00;37.30;;;;;;6319658;28;20106;-92
2024/01/24 05:08:00;;;;;;;42.45;6.55;;;11.00;34.20;;;;;;6349391;28;20055;-92
2024/01/24 05:11:02;;;;;;;36.05;6.53;;;11.00;31.40;;;;;;6326016;28;20483;-91
2024/01/24 05:14:04;;;;;;;38.75;7.00;;;10.90;36.50;;;;;;6334232;28;20097;-92
2024/01/24 05:17:07;;;;;;;35.08;6.07;;;10.90;38.00;;;;;;6349694;28;20051;-93
2024/01/24 05:20:12;;;;;;;37.92;6.63;;;10.90;35.10;;;;;;6328912;28;20067;-90
2024/01/24 05:23:14;;;;;;;38.10;7.03;;;11.00;27.40;;;;;;6349130;28;20078;-92
2024/01/24 05:26:16;;;;;;;46.60;6.13;;;11.20;31.50;;;;;;6324388;28;20112;-92
2024/01/24 05:29:21;;;;;;;37.58;6.70;;;;;;;;;;6320301;28;20056;-91
2024/01/24 05:32:26;;;;;;;37.05;6.78;;;10.80;36.90;;;;;;6303256;28;20091;-89
2024/01/24 05:35:35;;;;;;;35.92;6.57;;;11.00;39.40;;;;;;6289778;28;20111;-93
2024/01/24 05:38:37;;;;;;;38.90;6.53;;;11.10;37.20;;;;;;6346182;28;20038;-93
2024/01/24 05:41:43;;;;;;;45.78;7.22;;;11.00;30.70;;;;;;6352169;28;20048;-94
2024/01/24 05:44:46;;;;;;;41.83;6.47;;;10.90;35.10;;;;;;6318693;28;20120;-91
2024/01/24 05:47:51;;;;;;;42.55;6.65;;;10.90;37.90;;;;;;6300040;28;20056;-90
2024/01/24 05:50:56;;;;;;;40.65;7.20;;;10.80;36.50;;;;;;6338495;28;20049;-92
2024/01/24 05:53:58;;;;;;;34.45;6.25;;;10.80;38.80;;;;;;6348073;28;20020;-93
2024/01/24 05:57:00;;;;;;;39.05;6.40;;;10.70;35.90;;;;;;6320665;28;20519;-92
2024/01/24 06:03:16;;;;;;;42.70;6.97;;;10.70;44.70;;;;;;6270036;28;20058;-93
2024/01/24 06:06:18;;;;;;;41.13;7.10;;;10.60;49.30;;;;;;6247311;28;20101;-89
2024/01/24 06:09:20;;;;;;;35.88;6.18;;;10.50;46.80;;;;;;6263718;28;20054;-91
2024/01/24 06:12:23;;;;;;;38.53;6.63;;;10.60;44.90;;;;;;6237956;28;20204;-93
2024/01/24 06:15:27;;;;;;;32.30;5.53;;;10.60;48.60;;;;;;6215024;28;20054;-92
2024/01/24 06:18:32;;;;;;;39.35;6.30;;;10.60;48.00;;;;;;6227517;28;20049;-94
2024/01/24 06:21:34;;;;;;;44.38;7.13;;;10.60;53.10;;;;;;6227205;28;20062;-89
2024/01/24 06:24:36;;;;;;;45.10;7.05;;;10.50;50.70;;;;;;6233255;28;20119;-93
2024/01/24 06:27:39;;;;;;;44.33;7.43;;;10.60;50.60;;;;;;6234275;28;20061;-91
2024/01/24 06:30:42;;;;;;;45.15;7.85;;;10.60;49.50;;;;;;6258047;28;20079;-94
2024/01/24 06:33:48;;;;;;;39.55;6.32;;;10.60;46.50;;;;;;6255538;28;20115;-90
2024/01/24 06:36:49;;;;;;;37.00;6.55;;;10.60;45.80;;;;;;6228838;28;20081;-92
2024/01/24 06:39:51;;;;;;;39.03;6.97;;;10.70;45.90;;;;;;6254122;28;20045;-93
2024/01/24 06:42:54;;;;;;;36.85;7.32;;;10.50;50.40;;;;;;6232874;28;20042;-93
2024/01/24 06:45:56;;;;;;;43.13;7.38;;;10.50;50.50;;;;;;6233202;28;20052;-93
2024/01/24 06:48:58;;;;;;;37.55;7.05;;;10.50;53.60;;;;;;6232676;28;20076;-90
2024/01/24 06:52:00;;;;;;;33.17;6.10;;;10.40;50.40;;;;;;6259835;28;20113;-94
2024/01/24 06:55:09;;;;;;;35.22;6.07;;;10.40;50.40;;;;;;6209460;28;20060;-90
2024/01/24 06:58:11;;;;;;;49.42;7.68;;;10.50;54.90;;;;;;6222216;28;20061;-88
2024/01/24 07:01:16;;;;;;;40.45;7.05;;;10.30;56.30;;;;;;6261592;28;20584;-93
2024/01/24 07:04:20;;;;;;;37.55;6.68;;;10.30;54.30;;;;;;6265726;28;20050;-89
2024/01/24 07:07:25;;;;;;;42.70;7.35;;;10.30;56.30;;;;;;6257672;28;20076;-93
2024/01/24 07:10:30;;;;;;;37.20;6.43;;;10.40;57.80;;;;;;6233277;28;20046;-92
2024/01/24 07:13:32;;;;;;;38.58;7.22;;;10.30;60.00;;;;;;6246089;28;20093;-94
2024/01/24 07:16:34;;;;;;;42.03;6.82;;;10.60;67.80;;;;;;6255579;28;20045;-90
2024/01/24 07:19:36;;;;;;;42.97;6.47;;;10.30;62.60;;;;;;6234210;28;20054;-92
2024/01/24 07:22:39;;;;;;;35.80;5.82;;;;;;;;;;6258524;28;20079;-94
2024/01/24 07:25:41;;;;;;;42.78;7.05;;;10.20;64.60;;;;;;6232680;28;20053;-86
2024/01/24 07:28:42;;;;;;;43.17;6.65;;;10.20;70.40;;;;;;6240437;28;20080;-94
2024/01/24 07:31:44;;;;;;;51.22;7.25;;;10.10;71.70;;;;;;6233024;28;20054;-89
2024/01/24 07:34:46;;;;;;;51.30;7.80;;;10.10;74.30;;;;;;6236069;28;20058;-90
2024/01/24 07:37:48;;;;;;;51.38;7.40;;;10.10;74.80;;;;;;6257302;28;20084;-89
2024/01/24 07:40:51;;;;;;;49.22;7.43;;;10.10;76.00;;;;;;6237080;28;20144;-91
2024/01/24 07:43:53;;;;;;;47.08;7.78;;;10.10;76.90;;;;;;6244574;28;20191;-89
2024/01/24 07:46:55;;;;;;;43.60;7.40;;;10.20;75.90;;;;;;6260247;28;20053;-95
2024/01/24 07:49:57;;;;;;;42.97;7.03;;;10.20;75.10;;;;;;6235470;28;20081;-93
2024/01/24 07:53:25;;;;;;;42.38;6.65;;;10.20;75.30;;;;;;6211696;28;20042;-94
2024/01/24 07:56:27;;;;;;;40.55;6.88;;;10.20;76.40;;;;;;6260665;28;20511;-91
2024/01/24 07:59:31;;;;;;;42.60;7.35;;;10.10;76.10;;;;;;6233867;28;20133;-94
2024/01/24 08:02:32;;;;;;;46.03;6.82;;;10.10;78.00;;;;;;6249856;28;20115;-89
2024/01/24 08:05:35;;;;;;;44.65;6.82;;;10.20;80.70;;;;;;6223887;28;20060;-90
2024/01/24 08:08:37;;;;;;;40.38;7.25;;;10.00;81.80;;;;;;6251878;28;20060;-92
2024/01/24 08:11:40;;;;;;;41.20;7.15;;;9.90;83.30;;;;;;6231773;28;20054;-94
2024/01/24 08:14:45;;;;;;;44.20;7.10;;;9.90;83.20;;;;;;6202512;28;20478;-92
2024/01/24 08:17:47;;;;;;;42.28;7.28;;;10.00;83.00;;;;;;6252742;28;20051;-89
2024/01/24 08:20:52;;;;;;;44.25;6.30;;;10.00;81.40;;;;;;6229815;28;20394;-91
2024/01/24 08:23:54;;;;;;;44.30;7.20;;;10.00;83.50;;;;;;6250866;28;20068;-90
2024/01/24 08:26:56;;;;;;;43.50;6.72;;;10.00;85.00;;;;;;6229755;28;20137;-87
2024/01/24 08:29:59;;;;;;;43.08;6.82;;;10.00;85.50;;;;;;6249490;28;20075;-89
2024/01/24 08:33:01;;;;;;;39.50;6.70;;;10.00;83.90;;;;;;6224355;28;20440;-90
2024/01/24 08:36:03;;;;;;;41.45;6.80;;;;;;;;;;6246643;28;20072;-89
2024/01/24 08:39:06;;;;;;;40.55;6.57;;;10.00;90.70;;;;;;6226773;28;20062;-87
2024/01/24 08:42:07;;;;;;;39.33;6.13;;;10.30;91.90;;;;;;6251557;28;20045;-94
2024/01/24 08:45:09;;;;;;;37.53;6.75;;;10.10;85.40;;;;;;6228358;28;20050;-93
2024/01/24 08:48:12;;;;;;;38.15;6.85;;;;;;;;;;6254888;28;20050;-90
2024/01/24 08:51:14;;;;;;;34.25;6.65;;;10.20;82.40;;;;;;6231431;28;20056;-91
2024/01/24 08:54:17;;;;;;;41.83;6.18;;;;;;;;;;6253912;28;20096;-88
2024/01/24 08:57:19;;;;;;;34.72;6.80;;;10.30;81.60;;;;;;6242888;28;20057;-93
2024/01/24 09:00:21;;;;;;;37.63;6.35;;;10.20;77.60;;;;;;6218908;28;20054;-95
2024/01/24 09:03:23;;;;;;;34.50;6.25;;;;;;;;;;6264556;28;20069;-94
2024/01/24 09:06:26;;;;;;;37.83;5.88;;;10.30;86.00;;;;;;6232776;28;20054;-90
2024/01/24 09:09:30;;;;;;;40.63;5.55;;;10.80;90.60;;;;;;6258111;28;20081;-91
2024/01/24 09:12:34;;;;;;;36.30;6.53;;;10.50;71.50;;;;;;6226811;28;20194;-86
2024/01/24 09:15:41;;;;;;;42.88;6.32;;;10.50;74.40;;;;;;6258134;28;20061;-89
2024/01/24 09:18:43;;;;;;;38.20;6.50;;;10.50;72.60;;;;;;6261935;28;20397;-92
2024/01/24 09:21:45;;;;;;;38.35;6.35;;;10.60;69.10;;;;;;6243060;28;20041;-87
2024/01/24 09:24:47;;;;;;;44.25;6.35;;;10.70;72.50;;;;;;6244907;28;20044;-87
2024/01/24 09:27:53;;;;;;;30.70;6.20;;;10.70;72.40;;;;;;6256213;28;20061;-88
2024/01/24 09:30:55;;;;;;;44.97;6.63;;;10.80;69.40;;;;;;6236517;28;20064;-86
2024/01/24 09:33:57;;;;;;;30.42;5.47;;;10.80;65.60;;;;;;6250950;28;20062;-86
2024/01/24 09:37:00;;;;;;;39.83;6.50;;;10.90;65.60;;;;;;6254314;28;20053;-86
2024/01/24 09:40:02;;;;;;;32.88;5.03;;;10.90;66.20;;;;;;6227889;28;20057;-90
2024/01/24 09:43:04;;;;;;;33.58;4.57;;;11.00;65.10;;;;;;6246587;28;20054;-86
2024/01/24 09:46:07;;;;;;;35.50;4.28;;;11.10;61.20;;;;;;6231110;28;20064;-85
2024/01/24 09:49:09;;;;;;;31.50;4.85;;;11.20;53.70;;;;;;6231500;28;20062;-87
2024/01/24 09:52:11;;;;;;;34.08;5.32;;;11.30;51.40;;;;;;6230449;28;20684;-87
2024/01/24 09:55:13;;;;;;;27.42;4.35;;;11.60;38.00;;;;;;6255466;28;20534;-91
2024/01/24 09:58:15;;;;;;;19.20;3.75;;;11.90;27.50;;;;;;6244445;28;20083;-84
2024/01/24 10:01:19;;;;;;;19.95;3.33;;;12.30;15.60;;;;;;6251538;28;20053;-88
2024/01/24 10:04:21;;;;;;;22.60;3.58;;;12.30;7.20;;;;;;6245632;28;20049;-89
2024/01/24 10:07:23;;;;;;;20.17;3.85;;;12.60;18.50;;;;;;6270728;28;20087;-88
2024/01/24 10:10:26;;;;;;;23.75;3.80;;;12.80;7.20;;;;;;6236138;28;20054;-86
2024/01/24 10:13:28;;;;;;;22.33;4.97;;;12.50;6.50;;;;;;6234664;28;20072;-90
2024/01/24 10:16:30;;;;;;;22.23;3.75;;;;;;;;;;6224950;28;20140;-85
2024/01/24 10:19:32;;;;;;;25.10;4.05;;;14.00;4.30;;;;;;6250085;28;20061;-87
2024/01/24 10:22:34;;;;;;;22.65;3.72;;;13.40;1.00;;;;;;6266940;28;20057;-92
2024/01/24 10:25:38;;;;;;;23.60;4.45;;;13.30;1.00;;;;;;6246019;28;20093;-88
2024/01/24 10:28:40;;;;;;;16.40;4.05;;;13.60;1.00;;;;;;6252561;28;20121;-92
2024/01/24 10:31:42;;;;;;;20.98;3.72;;;13.80;1.00;;;;;;6253589;28;20077;-92
2024/01/24 10:34:44;;;;;;;20.10;3.55;;;13.70;1.00;;;;;;6240457;28;20606;-93
2024/01/24 10:38:01;;;;;;;23.48;3.92;;;13.80;1.00;;;;;;6250131;28;20097;-86
2024/01/24 10:41:04;;;;;;;18.00;4.05;;;;;;;;;;6231924;28;20284;-92
2024/01/24 10:44:07;;;;;;;23.85;4.38;;;14.20;1.00;;;;;;6241427;28;20103;-90
2024/01/24 10:47:09;;;;;;;21.45;4.57;;;14.40;1.00;;;;;;6253327;28;20341;-92
2024/01/24 10:50:11;;;;;;;20.10;4.00;;;13.60;1.00;;;;;;6215909;28;20141;-90
2024/01/24 10:53:13;;;;;;;19.48;3.90;;;;;;;;;;6249803;28;20049;-91
2024/01/24 10:56:16;;;;;;;19.70;3.45;;;;;;;;;;6221492;28;20511;-86
2024/01/24 10:59:18;;;;;;;16.75;3.55;;;14.40;1.00;;;;;;6242674;28;20060;-85
2024/01/24 11:02:20;;;;;;;29.02;3.72;;;;;;;;;;6221121;28;20108;-82
2024/01/24 11:05:22;;;;;;;25.00;4.47;;;;;;;;;;6245061;28;20049;-83
2024/01/24 11:08:25;;;;;;;18.38;3.80;;;;;;;;;;6221982;28;20065;-83
2024/01/24 11:11:43;;;;;;;25.15;4.25;;;15.00;1.00;;;;;;6207422;28;20200;-84
2024/01/24 11:14:45;;;;;;;22.52;4.15;;;15.10;1.00;;;;;;6244633;28;20053;-92
2024/01/24 11:17:47;;;;;;;21.20;4.00;;;;;;;;;;6221659;28;20062;-91
2024/01/24 11:20:51;;;;;;;20.45;3.33;;;15.70;1.00;;;;;;6244033;28;20521;-85
2024/01/24 11:23:53;;;;;;;17.02;3.53;;;15.60;1.00;;;;;;6219920;28;20108;-89
2024/01/24 11:26:55;;;;;;;23.92;4.10;;;15.70;1.00;;;;;;6232381;28;20179;-88
2024/01/24 11:29:59;;;;;;;20.33;3.97;;;15.60;1.00;;;;;;6209227;28;20145;-88
2024/01/24 11:33:01;;;;;;;17.48;3.60;;;15.30;1.00;;;;;;6232990;28;20117;-87
2024/01/24 11:36:05;;;;;;;20.65;3.95;;;15.50;1.00;;;;;;6248158;28;20107;-86
2024/01/24 11:39:08;;;;;;;18.00;3.20;;;15.30;1.00;;;;;;6220718;28;20196;-89
2024/01/24 11:42:09;;;;;;;21.55;3.35;;;15.00;1.00;;;;;;6245934;28;20057;-84
2024/01/24 11:45:11;;;;;;;19.95;3.78;;;14.90;1.00;;;;;;6217086;28;20061;-85
2024/01/24 11:48:12;;;;;;;17.15;3.42;;;15.20;1.00;;;;;;6249320;28;20053;-87
2024/01/24 11:51:14;;;;;;;16.27;3.47;;;15.10;1.00;;;;;;6243841;28;20045;-81
2024/01/24 11:54:16;;;;;;;18.63;2.95;;;15.00;1.00;;;;;;6195730;28;20101;-83
2024/01/24 11:57:17;;;;;;;17.70;3.05;;;15.00;1.00;;;;;;6207976;28;20062;-87
2024/01/24 12:00:19;;;;;;;21.77;4.07;;;15.30;1.00;;;;;;6192746;28;20577;-90
2024/01/24 12:03:21;;;;;;;16.85;2.90;;;15.60;1.00;;;;;;6233066;28;20493;-88
2024/01/24 12:06:23;;;;;;;18.10;3.92;;;15.70;1.00;;;;;;6216166;28;20046;-88
2024/01/24 12:09:25;;;;;;;16.67;3.53;;;15.30;1.00;;;;;;6221184;28;20147;-91
2024/01/24 12:12:27;;;;;;;22.70;3.47;;;14.80;1.00;;;;;;6219042;28;20061;-90
2024/01/24 12:15:29;;;;;;;19.75;3.47;;;14.40;1.00;;;;;;6242059;28;20118;-89
2024/01/24 12:18:31;;;;;;;24.67;3.97;;;13.90;1.00;;;;;;6217938;28;20057;-84
2024/01/24 12:21:33;;;;;;;18.85;3.40;;;13.80;1.00;;;;;;6218029;28;20046;-90
2024/01/24 12:24:36;;;;;;;18.85;4.22;;;13.70;1.00;;;;;;6209837;28;20054;-86
2024/01/24 12:27:38;;;;;;;23.27;4.93;;;13.80;1.00;;;;;;6238007;28;20070;-85
2024/01/24 12:30:40;;;;;;;21.55;4.22;;;13.90;1.00;;;;;;6218691;28;20121;-84
2024/01/24 12:33:42;;;;;;;23.73;4.70;;;14.00;1.00;;;;;;6226659;28;20147;-83
2024/01/24 12:36:44;;;;;;;19.40;3.88;;;14.20;1.00;;;;;;6218179;28;20136;-85
2024/01/24 12:39:46;;;;;;;19.48;4.30;;;14.20;1.00;;;;;;6242721;28;20148;-86
2024/01/24 12:42:49;;;;;;;21.02;4.32;;;14.50;1.00;;;;;;6218379;28;20075;-84
2024/01/24 12:45:55;;;;;;;23.02;4.22;;;14.60;1.00;;;;;;6242352;28;20057;-82
2024/01/24 12:48:58;;;;;;;20.63;3.70;;;14.90;1.00;;;;;;6217723;28;20054;-83
2024/01/24 12:52:00;;;;;;;15.23;2.78;;;14.90;1.00;;;;;;6242087;28;20085;-82
2024/01/24 12:55:03;;;;;;;18.33;3.50;;;14.90;1.00;;;;;;6219508;28;20061;-83
2024/01/24 12:58:05;;;;;;;11.40;2.45;;;15.00;1.00;;;;;;6220826;28;20348;-83
2024/01/24 13:01:07;;;;;;;20.80;3.35;;;14.90;1.00;;;;;;6237164;28;20540;-83
2024/01/24 13:04:09;;;;;;;19.13;2.88;;;15.10;1.00;;;;;;6218927;28;20133;-81
2024/01/24 13:07:11;;;;;;;15.48;2.67;;;15.30;1.00;;;;;;6242447;28;20058;-82
2024/01/24 13:10:12;;;;;;;10.45;2.70;;;15.70;1.00;;;;;;6217957;28;20050;-82
2024/01/24 13:13:14;;;;;;;15.52;2.60;;;15.50;1.00;;;;;;6230639;28;20057;-83
2024/01/24 13:16:16;;;;;;;12.20;2.65;;;15.80;1.00;;;;;;6241253;28;20053;-79
2024/01/24 13:19:18;;;;;;;17.52;3.00;;;15.50;1.00;;;;;;6218643;28;20065;-81
2024/01/24 13:22:20;;;;;;;20.40;3.35;;;15.90;1.00;;;;;;6242529;28;20382;-81
2024/01/24 13:25:21;;;;;;;16.17;3.10;;;15.80;1.00;;;;;;6223573;28;20054;-81
2024/01/24 13:28:23;;;;;;;16.02;2.90;;;15.70;1.00;;;;;;6236334;28;20084;-81
2024/01/24 13:31:25;;;;;;;14.70;2.78;;;15.70;1.00;;;;;;6246581;28;20053;-82
2024/01/24 13:34:27;;;;;;;14.13;2.70;;;15.40;1.00;;;;;;6235825;28;20060;-84
2024/01/24 13:37:29;;;;;;;15.48;3.58;;;15.40;1.00;;;;;;6221691;28;20053;-80
2024/01/24 13:40:31;;;;;;;16.15;2.90;;;15.20;1.00;;;;;;6246431;28;20147;-83
2024/01/24 13:43:32;;;;;;;21.90;2.92;;;15.00;1.00;;;;;;6230249;28;20053;-83
2024/01/24 13:46:34;;;;;;;18.30;3.05;;;14.60;1.00;;;;;;6222531;28;20093;-84
2024/01/24 13:49:37;;;;;;;11.70;2.55;;;14.60;1.00;;;;;;6245622;28;20093;-85
2024/01/24 13:52:39;;;;;;;20.00;3.88;;;14.30;1.00;;;;;;6223336;28;20060;-84
2024/01/24 13:55:41;;;;;;;18.23;3.85;;;14.10;1.00;;;;;;6245879;28;20056;-84
2024/01/24 13:58:43;;;;;;;17.85;3.85;;;14.10;1.00;;;;;;6229832;28;20119;-81
2024/01/24 14:01:45;;;;;;;18.88;4.18;;;13.90;1.00;;;;;;6233799;28;20443;-82
2024/01/24 14:04:57;;;;;;;20.45;4.40;;;14.00;1.00;;;;;;6197526;28;20069;-83
2024/01/24 14:07:59;;;;;;;22.95;4.25;;;14.00;1.00;;;;;;6245426;28;20100;-84
2024/01/24 14:11:01;;;;;;;17.85;3.88;;;14.30;1.00;;;;;;6220485;28;20062;-84
2024/01/24 14:14:03;;;;;;;18.65;4.28;;;14.50;1.00;;;;;;6230147;28;20050;-85
2024/01/24 14:17:05;;;;;;;21.52;4.85;;;14.80;1.00;;;;;;6244223;28;20127;-79
2024/01/24 14:20:07;;;;;;;17.67;3.90;;;15.00;1.00;;;;;;6222103;28;20505;-82
2024/01/24 14:23:09;;;;;;;18.63;3.03;;;15.40;1.00;;;;;;6244284;28;20055;-81
2024/01/24 14:26:11;;;;;;;14.95;2.90;;;15.40;1.00;;;;;;6220457;28;20517;-82
2024/01/24 14:29:13;;;;;;;16.00;3.10;;;15.50;1.00;;;;;;6227337;28;20053;-86
2024/01/24 14:32:14;;;;;;;16.17;2.72;;;15.40;1.00;;;;;;6220078;28;20058;-82
2024/01/24 14:35:17;;;;;;;14.80;3.00;;;15.50;1.00;;;;;;6221059;28;20050;-84
2024/01/24 14:38:18;;;;;;;15.50;2.80;;;15.20;1.00;;;;;;6244697;28;20053;-82
2024/01/24 14:41:20;;;;;;;19.70;3.00;;;14.90;1.00;;;;;;6222502;28;20050;-89
2024/01/24 14:44:22;;;;;;;15.82;2.88;;;14.50;1.00;;;;;;6243416;28;20055;-89
2024/01/24 14:47:24;;;;;;;20.63;3.40;;;;;;;;;;6220461;28;20056;-83
2024/01/24 14:50:28;;;;;;;20.02;3.38;;;;;;;;;;6246173;28;20053;-83
2024/01/24 14:53:29;;;;;;;22.20;4.30;;;13.50;1.00;;;;;;6245441;28;20053;-85
2024/01/24 14:56:31;;;;;;;22.23;3.90;;;13.30;1.00;;;;;;6220702;28;20050;-87
2024/01/24 14:59:33;;;;;;;23.23;3.90;;;13.10;1.00;;;;;;6240396;28;20415;-83
2024/01/24 15:02:34;;;;;;;21.17;4.10;;;13.00;1.00;;;;;;6225854;28;20061;-81
2024/01/24 15:05:39;;;;;;;28.70;4.60;;;12.80;1.00;;;;;;6245763;28;20110;-84
2024/01/24 15:08:40;;;;;;;24.20;4.20;;;12.70;1.00;;;;;;6233245;28;20060;-88
2024/01/24 15:11:42;;;;;;;21.95;4.15;;;12.70;1.00;;;;;;6219345;28;20111;-88
2024/01/24 15:14:44;;;;;;;30.63;4.30;;;12.60;1.00;;;;;;6243022;28;20385;-87
2024/01/24 15:17:47;;;;;;;28.80;4.78;;;12.60;1.00;;;;;;6245740;28;20046;-88
2024/01/24 15:20:50;;;;;;;29.13;4.65;;;12.40;1.00;;;;;;6197044;28;20047;-87
2024/01/24 15:24:08;;;;;;;24.70;4.75;;;12.50;1.00;;;;;;6225719;28;20096;-86
2024/01/24 15:27:10;;;;;;;38.95;5.63;;;12.40;1.00;;;;;;6211234;28;20098;-83
2024/01/24 15:30:12;;;;;;;23.38;4.00;;;12.20;1.00;;;;;;6236069;28;20461;-86
2024/01/24 15:33:14;;;;;;;30.30;4.88;;;12.20;1.00;;;;;;6246443;28;20053;-91
2024/01/24 15:36:16;;;;;;;21.33;3.83;;;12.20;1.00;;;;;;6221279;28;20098;-85
2024/01/24 15:39:18;;;;;;;24.23;4.28;;;12.10;1.00;;;;;;6247874;28;20061;-86
2024/01/24 15:42:21;;;;;;;32.20;5.43;;;12.10;1.00;;;;;;6252282;28;20053;-90
2024/01/24 15:45:26;;;;;;;25.55;4.45;;;12.00;1.00;;;;;;6219130;28;20394;-82
2024/01/24 15:48:28;;;;;;;26.77;5.63;;;12.00;1.00;;;;;;6218762;28;20053;-84
2024/01/24 15:51:30;;;;;;;59.83;7.13;;;11.90;1.00;;;;;;6194277;28;20069;-84
2024/01/24 15:54:31;;;;;;;27.10;4.40;;;11.90;1.00;;;;;;6215353;28;20166;-80